Time;durP1;ratioP1;P1;durP2;ratioP2;P2;SDS_P1;SDS_P2;PMS_P1;PMS_P2;Temp;Humidity;BMP_temperature;BMP_pressure;BME280_temperature;BME280_humidity;BME280_pressure;Samples;Min_cycle;Max_cycle;Signal;HPM_P1;HPM_P2
2022/04/24 00:01:59;;;;;;;10.98;6.95;;;12.10;93.10;;;;;;5033827;28;20064;-74
2022/04/24 00:04:25;;;;;;;10.65;7.05;;;12.10;93.30;;;;;;5033679;28;20049;-74
2022/04/24 00:06:53;;;;;;;10.30;6.78;;;12.20;93.20;;;;;;5017547;28;20396;-73
2022/04/24 00:09:20;;;;;;;10.32;6.80;;;12.30;93.10;;;;;;5033610;28;20053;-73
2022/04/24 00:11:46;;;;;;;10.38;7.68;;;12.10;93.20;;;;;;5033610;28;20489;-74
2022/04/24 00:14:12;;;;;;;14.52;7.47;;;12.10;93.20;;;;;;5033571;28;20056;-73
2022/04/24 00:16:38;;;;;;;12.13;7.40;;;12.00;93.10;;;;;;5033368;28;20436;-74
2022/04/24 00:19:04;;;;;;;13.90;7.55;;;12.10;93.20;;;;;;5033127;28;20053;-74
2022/04/24 00:21:30;;;;;;;10.55;6.30;;;12.10;93.10;;;;;;5033056;28;20045;-74
2022/04/24 00:23:56;;;;;;;10.48;7.25;;;11.90;93.30;;;;;;5032997;28;20057;-74
2022/04/24 00:26:22;;;;;;;10.95;6.57;;;12.00;93.20;;;;;;5033052;28;20067;-74
2022/04/24 00:28:49;;;;;;;10.85;6.70;;;12.00;93.10;;;;;;5017523;28;20052;-74
2022/04/24 00:31:14;;;;;;;12.70;6.75;;;12.00;93.20;;;;;;5033237;28;20512;-74
2022/04/24 00:33:40;;;;;;;11.82;7.07;;;12.10;93.20;;;;;;5033207;28;20057;-74
2022/04/24 00:36:06;;;;;;;10.00;6.85;;;12.00;93.30;;;;;;5033097;28;20115;-75
2022/04/24 00:38:32;;;;;;;10.07;7.00;;;12.00;93.20;;;;;;5032973;28;20041;-74
2022/04/24 00:40:58;;;;;;;14.32;6.63;;;11.90;93.40;;;;;;5033047;28;20049;-73
2022/04/24 00:43:24;;;;;;;14.63;7.10;;;11.80;93.30;;;;;;5033097;28;20384;-74
2022/04/24 00:45:59;;;;;;;12.65;6.75;;;11.90;93.20;;;;;;5032860;28;20046;-74
2022/04/24 00:48:26;;;;;;;10.57;7.50;;;12.00;93.20;;;;;;5032954;28;20053;-74
2022/04/24 00:50:52;;;;;;;9.98;6.38;;;12.00;93.10;;;;;;5032977;28;20046;-74
2022/04/24 00:53:18;;;;;;;11.00;7.20;;;11.90;93.10;;;;;;5032137;28;20053;-74
2022/04/24 00:55:44;;;;;;;10.25;6.45;;;11.90;93.00;;;;;;5033865;28;20049;-74
2022/04/24 00:58:10;;;;;;;10.25;6.47;;;12.00;93.10;;;;;;5032865;28;20480;-74
2022/04/24 01:00:38;;;;;;;11.98;6.97;;;11.80;93.00;;;;;;5032840;28;20394;-74
2022/04/24 01:03:04;;;;;;;9.35;6.20;;;11.90;93.10;;;;;;5032784;28;20049;-74
2022/04/24 01:05:30;;;;;;;9.60;6.50;;;12.00;93.10;;;;;;5032715;28;20049;-74
2022/04/24 01:07:56;;;;;;;11.48;6.63;;;12.00;93.00;;;;;;5032654;28;20063;-74
2022/04/24 01:10:21;;;;;;;10.10;6.15;;;12.00;92.90;;;;;;5032580;28;20045;-74
2022/04/24 01:12:47;;;;;;;12.13;6.97;;;12.00;93.10;;;;;;5032669;28;20064;-74
2022/04/24 01:15:13;;;;;;;9.98;6.60;;;12.10;92.80;;;;;;5032608;28;20053;-74
2022/04/24 01:17:40;;;;;;;9.38;7.00;;;11.90;92.90;;;;;;5032378;28;20092;-74
2022/04/24 01:20:06;;;;;;;11.27;7.03;;;11.80;93.00;;;;;;5032251;28;20443;-73
2022/04/24 01:22:33;;;;;;;9.98;6.38;;;11.80;93.00;;;;;;5032534;28;20106;-74
2022/04/24 01:24:58;;;;;;;10.75;7.60;;;11.80;93.00;;;;;;5015705;28;20052;-74
2022/04/24 01:27:24;;;;;;;9.35;7.00;;;11.90;92.90;;;;;;5033191;28;20057;-74
2022/04/24 01:29:50;;;;;;;10.10;7.05;;;11.80;92.80;;;;;;5036631;28;20042;-74
2022/04/24 01:32:16;;;;;;;12.73;7.53;;;11.70;93.00;;;;;;5036600;28;20107;-74
2022/04/24 01:34:42;;;;;;;9.13;6.63;;;11.70;92.90;;;;;;5020029;28;20045;-74
2022/04/24 01:37:08;;;;;;;11.02;7.10;;;11.60;92.90;;;;;;5020018;28;20060;-73
2022/04/24 01:39:33;;;;;;;12.07;6.97;;;11.60;92.90;;;;;;5036632;28;20042;-74
2022/04/24 01:41:59;;;;;;;11.93;7.28;;;11.50;93.00;;;;;;5036919;28;20053;-74
2022/04/24 01:44:25;;;;;;;10.55;6.90;;;11.60;93.00;;;;;;5036437;28;20148;-74
2022/04/24 01:46:52;;;;;;;11.38;7.22;;;11.70;93.10;;;;;;5036016;28;20045;-74
2022/04/24 01:49:17;;;;;;;9.30;6.65;;;11.70;92.90;;;;;;5036281;28;20123;-74
2022/04/24 01:51:44;;;;;;;10.15;6.65;;;11.60;93.00;;;;;;5036154;28;20496;-74
2022/04/24 01:54:10;;;;;;;10.30;6.18;;;11.60;92.90;;;;;;5035645;28;20500;-74
2022/04/24 01:56:35;;;;;;;13.52;7.20;;;11.60;93.00;;;;;;5036279;28;20076;-74
2022/04/24 01:59:01;;;;;;;11.15;6.68;;;11.50;92.90;;;;;;5036161;28;20045;-74
2022/04/24 02:01:27;;;;;;;10.57;7.13;;;11.40;92.90;;;;;;5036050;28;20053;-74
2022/04/24 02:03:52;;;;;;;11.98;7.15;;;11.50;92.90;;;;;;5035891;28;20053;-74
2022/04/24 02:06:18;;;;;;;12.82;7.32;;;11.50;92.90;;;;;;5035679;28;20049;-74
2022/04/24 02:08:44;;;;;;;9.80;7.05;;;11.60;92.90;;;;;;5019517;28;20485;-74
2022/04/24 02:11:09;;;;;;;12.05;7.65;;;11.60;92.90;;;;;;5035958;28;20516;-74
2022/04/24 02:13:35;;;;;;;11.05;7.15;;;11.60;92.80;;;;;;5019474;28;20477;-74
2022/04/24 02:16:01;;;;;;;10.60;7.15;;;11.60;92.80;;;;;;5035761;28;20136;-74
2022/04/24 02:18:27;;;;;;;10.95;6.53;;;11.70;92.70;;;;;;5035660;28;20057;-74
2022/04/24 02:20:53;;;;;;;11.55;7.28;;;11.60;92.90;;;;;;5019172;28;20050;-74
2022/04/24 02:23:18;;;;;;;9.30;6.65;;;11.60;92.70;;;;;;5035065;28;20492;-74
2022/04/24 02:25:44;;;;;;;11.80;7.07;;;11.50;92.90;;;;;;5035475;28;20041;-74
2022/04/24 02:28:10;;;;;;;9.15;6.53;;;11.50;92.70;;;;;;5035451;28;20468;-74
2022/04/24 02:30:35;;;;;;;7.88;5.75;;;11.40;92.60;;;;;;5035598;28;20051;-74
2022/04/24 02:33:01;;;;;;;11.55;6.65;;;11.40;92.70;;;;;;5018767;28;20056;-74
2022/04/24 02:35:28;;;;;;;9.98;6.70;;;11.40;92.70;;;;;;5035422;28;20107;-74
2022/04/24 02:37:54;;;;;;;12.38;6.30;;;11.50;92.50;;;;;;5035462;28;20054;-74
2022/04/24 02:40:21;;;;;;;9.18;6.10;;;11.10;92.60;;;;;;5033803;28;20125;-74
2022/04/24 02:42:51;;;;;;;9.93;6.10;;;11.20;92.60;;;;;;5035303;28;20092;-74
2022/04/24 02:45:17;;;;;;;9.68;6.00;;;11.20;92.70;;;;;;5035288;28;20053;-74
2022/04/24 02:47:43;;;;;;;8.43;5.88;;;11.30;92.60;;;;;;5035170;28;20084;-74
2022/04/24 02:50:09;;;;;;;8.98;6.20;;;11.30;92.60;;;;;;5035125;28;20085;-74
2022/04/24 02:52:45;;;;;;;9.20;5.63;;;11.20;92.60;;;;;;5035357;28;20050;-74
2022/04/24 02:55:12;;;;;;;12.52;6.25;;;11.30;92.60;;;;;;5034480;28;20049;-74
2022/04/24 02:57:38;;;;;;;10.55;6.18;;;11.40;92.50;;;;;;5035034;28;20115;-74
2022/04/24 03:00:04;;;;;;;7.93;5.88;;;11.60;92.60;;;;;;5035053;28;20057;-74
2022/04/24 03:02:30;;;;;;;11.40;7.07;;;11.60;92.60;;;;;;5018439;28;20140;-74
2022/04/24 03:04:56;;;;;;;9.35;6.22;;;11.60;92.60;;;;;;5034844;28;20452;-74
2022/04/24 03:07:21;;;;;;;8.43;5.53;;;11.40;92.70;;;;;;5034701;28;20042;-74
2022/04/24 03:09:47;;;;;;;11.07;7.20;;;11.40;92.90;;;;;;5034877;28;20059;-74
2022/04/24 03:12:12;;;;;;;13.23;7.45;;;11.50;92.70;;;;;;5018257;28;20045;-74
2022/04/24 03:14:38;;;;;;;9.98;6.57;;;11.50;92.80;;;;;;5034080;28;20047;-75
2022/04/24 03:17:04;;;;;;;11.15;6.75;;;11.60;92.90;;;;;;5034684;28;20041;-75
2022/04/24 03:19:30;;;;;;;10.85;6.90;;;11.60;92.90;;;;;;5017964;28;20060;-74
2022/04/24 03:21:55;;;;;;;11.75;7.38;;;11.60;92.90;;;;;;5034665;28;20057;-74
2022/04/24 03:24:21;;;;;;;10.95;7.60;;;11.40;93.00;;;;;;5034126;28;20050;-74
2022/04/24 03:26:47;;;;;;;12.70;6.90;;;11.40;92.90;;;;;;5034127;28;20045;-74
2022/04/24 03:29:12;;;;;;;10.50;7.25;;;11.30;92.80;;;;;;5034326;28;20037;-74
2022/04/24 03:31:38;;;;;;;9.60;6.30;;;11.30;92.90;;;;;;5034289;28;20152;-74
2022/04/24 03:34:06;;;;;;;9.90;6.63;;;11.20;93.00;;;;;;5017828;28;20080;-74
2022/04/24 03:36:31;;;;;;;8.75;6.10;;;11.10;93.20;;;;;;5034855;28;20523;-74
2022/04/24 03:38:57;;;;;;;12.98;7.63;;;11.20;93.10;;;;;;5034313;28;20097;-74
2022/04/24 03:41:23;;;;;;;12.85;7.28;;;11.30;93.10;;;;;;5034160;28;20050;-74
2022/04/24 03:43:48;;;;;;;10.77;7.20;;;11.30;93.20;;;;;;5034226;28;20124;-74
2022/04/24 03:46:14;;;;;;;12.32;7.72;;;11.30;93.10;;;;;;5017359;28;20045;-75
2022/04/24 03:48:39;;;;;;;16.75;8.07;;;11.30;93.20;;;;;;5034079;28;20048;-74
2022/04/24 03:51:07;;;;;;;11.48;7.57;;;11.10;93.20;;;;;;5033597;28;20049;-74
2022/04/24 03:53:33;;;;;;;12.85;7.70;;;11.10;93.20;;;;;;5033575;28;20153;-75
2022/04/24 03:55:58;;;;;;;11.95;6.82;;;10.90;93.40;;;;;;5034950;28;20531;-74
2022/04/24 03:58:24;;;;;;;10.18;7.25;;;10.90;93.40;;;;;;5033553;28;20480;-74
2022/04/24 04:00:49;;;;;;;11.73;6.70;;;10.90;93.40;;;;;;5033886;28;20088;-74
2022/04/24 04:03:16;;;;;;;11.02;7.18;;;10.70;93.50;;;;;;5033684;28;20081;-74
2022/04/24 04:05:42;;;;;;;10.98;7.03;;;10.60;93.40;;;;;;5033602;28;20077;-74
2022/04/24 04:08:07;;;;;;;11.80;7.00;;;10.60;93.40;;;;;;5033612;28;20095;-74
2022/04/24 04:10:33;;;;;;;12.13;7.10;;;10.60;93.50;;;;;;5033702;28;20115;-73
2022/04/24 04:12:59;;;;;;;9.57;6.53;;;10.70;93.40;;;;;;5017319;28;20111;-74
2022/04/24 04:15:24;;;;;;;12.13;6.95;;;10.70;93.30;;;;;;5033464;28;20083;-74
2022/04/24 04:17:50;;;;;;;10.65;7.15;;;10.70;93.30;;;;;;5016878;28;20060;-74
2022/04/24 04:20:16;;;;;;;16.10;7.10;;;10.60;93.40;;;;;;5033882;28;20080;-74
2022/04/24 04:22:51;;;;;;;11.60;6.70;;;10.60;93.40;;;;;;5017128;28;20045;-74
2022/04/24 04:25:24;;;;;;;9.10;6.30;;;10.50;93.50;;;;;;5032693;28;20052;-74
2022/04/24 04:27:50;;;;;;;10.93;7.07;;;10.50;93.60;;;;;;5049917;28;20049;-74
2022/04/24 04:30:16;;;;;;;12.85;7.38;;;10.60;93.50;;;;;;5033255;28;20046;-74
2022/04/24 04:32:42;;;;;;;11.60;7.13;;;10.60;93.30;;;;;;5016511;28;20377;-74
2022/04/24 04:35:09;;;;;;;11.93;7.05;;;10.50;93.60;;;;;;5016799;28;20088;-74
2022/04/24 04:37:39;;;;;;;10.00;5.80;;;10.50;93.50;;;;;;5033130;28;20552;-74
2022/04/24 04:40:07;;;;;;;10.75;6.07;;;10.50;93.70;;;;;;5033273;28;20049;-74
2022/04/24 04:42:33;;;;;;;9.45;5.75;;;10.40;93.70;;;;;;5032822;28;20495;-74
2022/04/24 04:45:00;;;;;;;11.25;6.75;;;10.40;93.80;;;;;;5032991;28;20124;-74
2022/04/24 04:47:30;;;;;;;11.07;6.88;;;10.60;93.60;;;;;;5032961;28;20180;-74
2022/04/24 04:49:56;;;;;;;12.07;7.00;;;10.50;93.70;;;;;;5032988;28;20052;-74
2022/04/24 04:52:22;;;;;;;15.27;7.07;;;10.50;93.70;;;;;;5032940;28;20045;-74
2022/04/24 04:54:49;;;;;;;10.80;7.00;;;10.50;93.80;;;;;;5032373;28;20481;-74
2022/04/24 04:57:14;;;;;;;12.02;7.00;;;10.50;93.80;;;;;;5032888;28;20088;-75
2022/04/24 04:59:41;;;;;;;11.48;6.88;;;10.40;94.10;;;;;;5032984;28;20057;-74
2022/04/24 05:02:06;;;;;;;11.20;6.60;;;10.50;94.00;;;;;;5032164;28;20424;-74
2022/04/24 05:04:32;;;;;;;12.75;6.78;;;10.40;94.20;;;;;;5032715;28;20045;-74
2022/04/24 05:06:58;;;;;;;11.85;7.10;;;10.50;94.20;;;;;;5032786;28;20095;-74
2022/04/24 05:09:24;;;;;;;14.38;7.47;;;10.60;94.10;;;;;;5032721;28;20103;-74
2022/04/24 05:11:50;;;;;;;13.82;6.97;;;10.60;94.10;;;;;;5032402;28;20046;-74
2022/04/24 05:14:16;;;;;;;13.40;7.18;;;10.60;94.20;;;;;;5032711;28;20088;-75
2022/04/24 05:16:42;;;;;;;11.73;6.55;;;10.60;94.30;;;;;;5032651;28;20452;-74
2022/04/24 05:19:07;;;;;;;14.45;7.53;;;10.70;94.40;;;;;;5032251;28;20057;-74
2022/04/24 05:21:34;;;;;;;13.52;7.78;;;10.80;94.30;;;;;;5032522;28;20080;-74
2022/04/24 05:24:00;;;;;;;11.63;7.32;;;10.60;94.40;;;;;;5031888;28;20492;-74
2022/04/24 05:26:29;;;;;;;12.90;7.38;;;10.60;94.40;;;;;;5015897;28;20052;-74
2022/04/24 05:28:54;;;;;;;16.38;8.00;;;10.60;94.50;;;;;;5032555;28;20079;-74
2022/04/24 05:31:20;;;;;;;12.90;7.95;;;10.70;94.60;;;;;;5032489;28;20128;-74
2022/04/24 05:33:46;;;;;;;11.38;7.53;;;10.80;94.50;;;;;;5032488;28;20052;-74
2022/04/24 05:36:12;;;;;;;14.93;8.00;;;10.90;94.70;;;;;;5032487;28;20037;-74
2022/04/24 05:38:38;;;;;;;15.70;7.65;;;11.00;94.50;;;;;;5048898;28;20053;-74
2022/04/24 05:41:04;;;;;;;19.00;8.40;;;11.10;94.50;;;;;;5032516;28;20174;-74
2022/04/24 05:43:30;;;;;;;14.32;7.97;;;11.20;94.40;;;;;;5032367;28;20045;-74
2022/04/24 05:45:56;;;;;;;13.63;7.97;;;11.10;94.40;;;;;;5015945;28;20049;-74
2022/04/24 05:48:22;;;;;;;14.05;7.90;;;10.90;94.60;;;;;;5032487;28;20053;-74
2022/04/24 05:50:48;;;;;;;13.70;7.75;;;10.90;94.60;;;;;;5032232;28;20510;-74
2022/04/24 05:53:14;;;;;;;15.00;8.88;;;10.90;94.70;;;;;;5031821;28;20124;-74
2022/04/24 05:55:40;;;;;;;15.40;7.85;;;10.90;94.60;;;;;;4999579;28;20544;-74
2022/04/24 05:58:06;;;;;;;12.88;7.43;;;10.90;94.60;;;;;;5032089;28;20049;-74
2022/04/24 06:00:32;;;;;;;12.30;7.10;;;10.90;94.60;;;;;;5015988;28;20038;-74
2022/04/24 06:02:57;;;;;;;14.63;7.38;;;10.90;94.60;;;;;;5015845;28;20100;-74
2022/04/24 06:05:23;;;;;;;12.38;7.03;;;11.10;94.60;;;;;;5015675;28;20045;-74
2022/04/24 06:07:49;;;;;;;16.33;8.15;;;11.30;94.50;;;;;;5033071;28;20037;-74
2022/04/24 06:10:16;;;;;;;12.85;7.22;;;11.40;94.50;;;;;;5032091;28;20531;-74
2022/04/24 06:12:46;;;;;;;12.18;6.45;;;11.50;94.30;;;;;;5032091;28;20046;-74
2022/04/24 06:15:15;;;;;;;12.43;6.75;;;11.60;94.40;;;;;;5035952;28;20064;-74
2022/04/24 06:17:42;;;;;;;11.07;6.53;;;11.70;94.10;;;;;;5035688;28;20065;-74
2022/04/24 06:20:09;;;;;;;11.15;6.00;;;11.70;94.00;;;;;;5035033;28;20061;-74
2022/04/24 06:22:51;;;;;;;9.75;6.07;;;11.60;94.10;;;;;;5035661;28;20053;-74
2022/04/24 06:25:22;;;;;;;11.90;5.65;;;11.70;94.00;;;;;;5035160;28;20477;-74
2022/04/24 06:27:48;;;;;;;11.93;5.15;;;11.60;93.80;;;;;;5035660;28;20045;-74
2022/04/24 06:30:15;;;;;;;10.65;5.40;;;11.80;93.90;;;;;;5035548;28;20049;-75
2022/04/24 06:32:43;;;;;;;10.35;5.00;;;12.00;93.80;;;;;;5036476;28;20049;-74
2022/04/24 06:35:16;;;;;;;8.63;4.50;;;11.90;93.80;;;;;;5035135;28;20511;-74
2022/04/24 06:37:48;;;;;;;7.68;4.07;;;11.90;93.60;;;;;;5035461;28;20048;-74
2022/04/24 06:40:15;;;;;;;7.60;4.55;;;11.90;93.80;;;;;;5035167;28;20477;-74
2022/04/24 06:42:52;;;;;;;6.85;4.28;;;11.90;93.60;;;;;;5035716;28;20050;-74
2022/04/24 06:45:25;;;;;;;9.70;4.40;;;11.90;93.50;;;;;;5035202;28;20042;-74
2022/04/24 06:47:52;;;;;;;9.75;4.22;;;11.90;93.50;;;;;;5035207;28;20477;-74
2022/04/24 06:50:18;;;;;;;5.72;3.67;;;11.90;93.60;;;;;;5035559;28;20128;-74
2022/04/24 06:52:43;;;;;;;12.25;4.32;;;11.70;93.70;;;;;;5035287;28;20081;-73
2022/04/24 06:55:09;;;;;;;9.32;4.15;;;11.70;93.50;;;;;;5034692;28;20096;-74
2022/04/24 06:57:35;;;;;;;11.18;4.18;;;11.90;93.60;;;;;;5034743;28;20053;-74
2022/04/24 07:00:01;;;;;;;7.95;3.72;;;12.00;93.60;;;;;;5035159;28;20099;-73
2022/04/24 07:02:26;;;;;;;8.00;3.38;;;12.10;93.40;;;;;;5034896;28;20056;-74
2022/04/24 07:04:52;;;;;;;7.20;3.20;;;12.30;93.40;;;;;;5034891;28;20092;-74
2022/04/24 07:07:18;;;;;;;6.13;3.30;;;12.50;93.40;;;;;;5034595;28;20056;-74
2022/04/24 07:09:43;;;;;;;5.90;3.25;;;12.60;93.40;;;;;;5034864;28;20052;-74
2022/04/24 07:12:09;;;;;;;8.38;3.40;;;12.70;93.30;;;;;;5034551;28;20045;-74
2022/04/24 07:14:35;;;;;;;9.18;2.72;;;12.80;93.20;;;;;;5002048;28;20045;-74
2022/04/24 07:17:01;;;;;;;4.80;2.50;;;12.80;92.90;;;;;;5018188;28;20053;-74
2022/04/24 07:19:26;;;;;;;7.22;2.30;;;12.80;93.10;;;;;;5034384;28;20054;-74
2022/04/24 07:21:52;;;;;;;4.55;2.25;;;12.80;92.90;;;;;;5034529;28;20140;-74
2022/04/24 07:24:18;;;;;;;5.82;2.30;;;12.90;92.80;;;;;;5017520;28;20053;-74
2022/04/24 07:26:43;;;;;;;6.22;2.20;;;12.80;92.80;;;;;;5033418;28;20041;-75
2022/04/24 07:29:09;;;;;;;7.20;2.03;;;12.80;92.80;;;;;;5034484;28;20104;-74
2022/04/24 07:31:34;;;;;;;5.30;2.30;;;12.90;93.00;;;;;;5034401;28;20045;-75
2022/04/24 07:34:00;;;;;;;5.72;2.20;;;13.00;92.60;;;;;;5017702;28;20385;-72
2022/04/24 07:36:26;;;;;;;5.00;2.50;;;13.00;92.80;;;;;;5035266;28;20080;-71
2022/04/24 07:38:51;;;;;;;3.95;2.60;;;13.00;92.90;;;;;;5038756;28;20041;-73
2022/04/24 07:41:17;;;;;;;4.97;2.10;;;13.30;93.00;;;;;;5044262;28;20188;-71
2022/04/24 07:43:48;;;;;;;7.07;2.10;;;13.30;92.70;;;;;;5035273;28;20049;-72
2022/04/24 07:46:14;;;;;;;6.32;1.80;;;13.40;92.80;;;;;;5033817;28;20045;-76
2022/04/24 07:48:40;;;;;;;7.88;2.05;;;13.60;92.60;;;;;;5034207;28;20046;-76
2022/04/24 07:51:06;;;;;;;5.88;2.15;;;13.40;92.40;;;;;;5034061;28;20080;-76
2022/04/24 07:53:31;;;;;;;5.20;2.40;;;13.60;92.40;;;;;;5016912;28;20053;-76
2022/04/24 07:55:57;;;;;;;8.30;2.72;;;13.70;92.50;;;;;;5033922;28;20060;-76
2022/04/24 07:58:23;;;;;;;5.20;2.25;;;13.60;92.60;;;;;;5033932;28;20494;-77
2022/04/24 08:00:49;;;;;;;7.07;2.80;;;13.60;92.80;;;;;;5033892;28;20127;-72
2022/04/24 08:03:16;;;;;;;5.38;2.53;;;13.70;92.50;;;;;;5033586;28;20045;-76
2022/04/24 08:05:44;;;;;;;5.35;2.55;;;13.60;92.40;;;;;;5033656;28;20041;-77
2022/04/24 08:08:21;;;;;;;7.22;2.63;;;13.70;92.70;;;;;;5035390;28;20081;-76
2022/04/24 08:10:53;;;;;;;5.07;2.35;;;13.90;92.50;;;;;;5033387;28;20076;-76
2022/04/24 08:13:20;;;;;;;7.47;2.60;;;14.00;92.40;;;;;;5033683;28;20496;-76
2022/04/24 08:15:46;;;;;;;4.45;2.60;;;14.10;92.50;;;;;;5049101;28;20128;-77
2022/04/24 08:18:12;;;;;;;3.88;2.25;;;14.10;92.20;;;;;;5033347;28;20049;-77
2022/04/24 08:20:39;;;;;;;6.03;2.97;;;14.30;92.60;;;;;;5032832;28;20068;-78
2022/04/24 08:23:05;;;;;;;5.40;2.88;;;14.30;92.20;;;;;;5033378;28;20081;-77
2022/04/24 08:25:35;;;;;;;7.10;2.60;;;14.30;92.30;;;;;;5032743;28;20107;-77
2022/04/24 08:28:06;;;;;;;6.65;2.47;;;14.30;91.90;;;;;;5034518;28;20041;-77
2022/04/24 08:30:34;;;;;;;6.63;2.47;;;14.40;92.20;;;;;;5033266;28;20041;-77
2022/04/24 08:32:59;;;;;;;6.63;2.80;;;14.60;92.60;;;;;;5033125;28;20058;-76
2022/04/24 08:35:25;;;;;;;7.75;2.63;;;14.90;92.30;;;;;;5033099;28;20354;-77
2022/04/24 08:37:51;;;;;;;5.68;2.20;;;15.00;92.10;;;;;;5032859;28;20071;-77
2022/04/24 08:40:18;;;;;;;8.80;2.58;;;15.10;92.10;;;;;;5016726;28;20047;-77
2022/04/24 08:42:44;;;;;;;6.50;2.60;;;15.10;92.00;;;;;;5032970;28;20046;-76
2022/04/24 08:45:13;;;;;;;5.78;2.60;;;15.20;92.20;;;;;;5032714;28;20055;-77
2022/04/24 08:47:39;;;;;;;7.85;2.35;;;15.20;92.00;;;;;;5032958;28;20046;-76
2022/04/24 08:50:05;;;;;;;7.25;2.58;;;15.30;91.60;;;;;;5032567;28;20103;-76
2022/04/24 08:52:31;;;;;;;4.68;2.35;;;15.40;91.90;;;;;;5032908;28;20049;-77
2022/04/24 08:54:58;;;;;;;4.70;2.30;;;15.60;91.70;;;;;;5032191;28;20109;-78
2022/04/24 08:57:30;;;;;;;4.53;2.70;;;15.70;92.00;;;;;;5035115;28;20050;-76
2022/04/24 08:59:58;;;;;;;5.57;2.38;;;15.80;91.70;;;;;;5032830;28;20053;-76
2022/04/24 09:02:24;;;;;;;6.28;2.88;;;15.70;91.40;;;;;;5033088;28;20053;-76
2022/04/24 09:04:52;;;;;;;5.00;2.65;;;15.80;91.90;;;;;;5032698;28;20045;-76
2022/04/24 09:07:20;;;;;;;7.35;2.50;;;15.90;92.00;;;;;;5033431;28;20111;-77
2022/04/24 09:09:51;;;;;;;6.68;2.70;;;16.00;91.40;;;;;;5031789;28;20057;-77
2022/04/24 09:12:21;;;;;;;4.40;2.15;;;15.90;91.40;;;;;;5032359;28;20076;-77
2022/04/24 09:14:48;;;;;;;6.72;3.03;;;16.10;91.80;;;;;;5032626;28;20049;-76
2022/04/24 09:17:19;;;;;;;6.85;2.85;;;16.30;91.80;;;;;;5032726;28;20056;-82
2022/04/24 09:19:46;;;;;;;7.28;3.08;;;15.60;91.70;;;;;;5032162;28;20058;-81
2022/04/24 09:22:12;;;;;;;5.35;2.65;;;15.10;91.90;;;;;;5032676;28;20068;-84
2022/04/24 09:24:52;;;;;;;9.50;3.13;;;15.30;92.10;;;;;;5032223;28;20053;-83
2022/04/24 09:27:34;;;;;;;5.63;2.83;;;15.20;92.30;;;;;;5032747;28;20530;-83
2022/04/24 09:30:04;;;;;;;8.55;3.08;;;15.30;92.00;;;;;;5032649;28;20049;-83
2022/04/24 09:32:36;;;;;;;10.15;3.15;;;15.40;91.90;;;;;;5032577;28;20045;-81
2022/04/24 09:35:03;;;;;;;5.97;2.88;;;15.30;92.00;;;;;;5016608;28;20046;-82
2022/04/24 09:37:38;;;;;;;8.68;3.25;;;15.40;92.00;;;;;;5016151;28;20064;-82
2022/04/24 09:40:04;;;;;;;5.95;2.58;;;15.60;91.70;;;;;;5032912;28;20469;-83
2022/04/24 09:42:30;;;;;;;8.50;2.70;;;15.70;91.90;;;;;;5032892;28;20391;-76
2022/04/24 09:44:55;;;;;;;7.15;3.20;;;15.90;91.80;;;;;;5032448;28;20133;-84
2022/04/24 09:47:26;;;;;;;6.38;3.00;;;15.80;91.80;;;;;;5015969;28;20473;-82
2022/04/24 09:49:52;;;;;;;6.00;2.40;;;15.90;92.20;;;;;;5035583;28;20080;-82
2022/04/24 09:52:23;;;;;;;6.93;2.90;;;15.80;91.80;;;;;;5035925;28;20555;-87
2022/04/24 09:54:53;;;;;;;7.03;2.78;;;15.90;91.60;;;;;;5035974;28;20403;-87
2022/04/24 09:57:27;;;;;;;10.48;3.22;;;16.00;91.80;;;;;;5019927;28;20052;-82
2022/04/24 09:59:53;;;;;;;8.57;2.75;;;16.30;91.80;;;;;;5035869;28;20393;-82
2022/04/24 10:02:20;;;;;;;7.18;2.80;;;16.40;91.30;;;;;;5019619;28;20049;-82
2022/04/24 10:04:47;;;;;;;3.38;2.15;;;16.70;91.40;;;;;;5035998;28;20123;-81
2022/04/24 10:07:17;;;;;;;5.63;2.28;;;16.60;91.00;;;;;;5036138;28;20056;-81
2022/04/24 10:09:47;;;;;;;7.50;2.40;;;16.20;91.40;;;;;;5036049;28;20045;-88
2022/04/24 10:12:20;;;;;;;7.13;2.50;;;16.10;91.60;;;;;;5036111;28;20052;-88
2022/04/24 10:15:03;;;;;;;9.02;2.72;;;16.10;91.30;;;;;;5036559;28;20080;-89
2022/04/24 10:17:50;;;;;;;13.80;2.72;;;16.50;92.00;;;;;;5036463;28;20095;-89
2022/04/24 10:20:49;;;;;;;8.15;2.67;;;16.80;92.10;;;;;;5036773;28;20061;-74
2022/04/24 10:23:14;;;;;;;6.40;2.58;;;17.10;91.60;;;;;;5034754;28;20053;-81
2022/04/24 10:25:42;;;;;;;4.78;2.50;;;17.60;91.40;;;;;;5036067;28;20052;-77
2022/04/24 10:28:18;;;;;;;7.95;2.35;;;17.90;91.40;;;;;;5036504;28;20404;-76
2022/04/24 10:31:01;;;;;;;4.50;2.40;;;18.30;91.40;;;;;;5036493;28;20050;-76
2022/04/24 10:33:29;;;;;;;8.05;3.13;;;18.50;91.30;;;;;;5051767;28;20488;-75
2022/04/24 10:36:15;;;;;;;3.65;2.42;;;18.40;91.20;;;;;;5036345;28;20046;-75
2022/04/24 10:38:53;;;;;;;5.90;2.72;;;18.10;90.90;;;;;;5051802;28;20050;-75
2022/04/24 10:41:22;;;;;;;5.22;2.30;;;18.30;91.10;;;;;;5035295;28;20058;-75
2022/04/24 10:44:09;;;;;;;4.63;2.08;;;18.50;90.90;;;;;;5036066;28;20115;-76
2022/04/24 10:46:40;;;;;;;7.20;2.65;;;18.40;91.10;;;;;;5033886;28;20067;-77
2022/04/24 10:49:08;;;;;;;6.50;2.50;;;18.30;90.70;;;;;;5036206;28;20053;-76
2022/04/24 10:51:35;;;;;;;6.97;2.22;;;18.00;90.80;;;;;;5036012;28;20060;-78
2022/04/24 10:54:13;;;;;;;5.10;2.60;;;17.80;90.90;;;;;;5021434;28;20089;-73
2022/04/24 10:56:51;;;;;;;3.65;2.15;;;18.00;90.70;;;;;;5034983;28;20088;-75
2022/04/24 10:59:22;;;;;;;3.13;1.85;;;17.80;90.80;;;;;;5034965;28;20051;-75
2022/04/24 11:01:50;;;;;;;4.10;2.03;;;17.80;90.60;;;;;;5034296;28;20132;-72
2022/04/24 11:04:17;;;;;;;4.85;2.00;;;17.90;90.70;;;;;;5034442;28;20049;-74
2022/04/24 11:06:59;;;;;;;5.25;1.85;;;17.70;90.40;;;;;;5033860;28;20111;-75
2022/04/24 11:09:36;;;;;;;3.53;2.17;;;17.80;90.60;;;;;;5033707;28;20512;-76
2022/04/24 11:12:07;;;;;;;3.88;1.60;;;18.10;90.80;;;;;;5035799;28;20049;-73
2022/04/24 11:14:34;;;;;;;7.07;1.80;;;18.30;90.70;;;;;;5036448;28;20049;-73
2022/04/24 11:17:02;;;;;;;5.35;1.88;;;18.20;90.20;;;;;;5038883;28;20088;-71
2022/04/24 11:19:34;;;;;;;3.80;2.00;;;18.30;90.60;;;;;;5035514;28;20104;-71
2022/04/24 11:22:03;;;;;;;10.20;2.65;;;18.30;90.20;;;;;;5035499;28;20310;-73
2022/04/24 11:24:31;;;;;;;49.25;6.22;;;18.30;90.30;;;;;;5033980;28;20510;-72
2022/04/24 11:27:00;;;;;;;29.05;5.75;;;18.10;90.80;;;;;;5035296;28;20046;-73
2022/04/24 11:29:26;;;;;;;10.60;2.80;;;18.60;90.90;;;;;;5017588;28;20057;-73
2022/04/24 11:31:53;;;;;;;11.23;3.00;;;19.10;90.80;;;;;;5035536;28;20132;-72
2022/04/24 11:34:23;;;;;;;5.55;3.10;;;19.00;90.90;;;;;;5035381;28;20049;-72
2022/04/24 11:36:54;;;;;;;5.78;2.70;;;19.20;90.80;;;;;;5034324;28;20507;-72
2022/04/24 11:39:20;;;;;;;4.97;2.55;;;18.80;90.40;;;;;;5034360;28;20404;-73
2022/04/24 11:41:48;;;;;;;8.93;2.67;;;18.90;90.50;;;;;;5035196;28;20041;-73
2022/04/24 11:52:40;;;;;;;5.45;2.90;;;19.10;90.70;;;;;;5034161;28;20060;-72
2022/04/24 11:55:08;;;;;;;6.82;2.67;;;19.40;90.70;;;;;;5034577;28;20054;-73
2022/04/24 11:57:34;;;;;;;5.57;2.80;;;19.50;90.30;;;;;;5034381;28;20126;-72
2022/04/24 12:00:03;;;;;;;6.13;2.67;;;19.60;90.20;;;;;;5033967;28;20149;-73
2022/04/24 12:02:29;;;;;;;7.30;3.30;;;19.50;90.40;;;;;;5034784;28;20041;-73
2022/04/24 12:04:56;;;;;;;5.72;3.00;;;20.00;90.50;;;;;;5033517;28;20053;-73
2022/04/24 12:07:32;;;;;;;5.07;3.20;;;20.00;90.90;;;;;;5034749;28;20048;-73
2022/04/24 12:10:01;;;;;;;4.40;2.85;;;20.10;90.90;;;;;;5033817;28;20053;-73
2022/04/24 12:12:27;;;;;;;5.85;2.78;;;20.20;90.70;;;;;;5033362;28;20110;-76
2022/04/24 12:14:53;;;;;;;6.90;3.33;;;20.40;90.80;;;;;;5050039;28;20107;-72
2022/04/24 12:17:20;;;;;;;6.45;2.95;;;20.30;91.00;;;;;;5033639;28;20052;-72
2022/04/24 12:19:50;;;;;;;6.90;3.55;;;20.20;91.20;;;;;;5034685;28;20053;-73
2022/04/24 12:22:25;;;;;;;5.75;3.55;;;19.90;91.10;;;;;;5033291;28;20477;-73
2022/04/24 12:24:50;;;;;;;6.70;3.42;;;19.60;90.80;;;;;;5034015;28;20045;-73
2022/04/24 12:27:17;;;;;;;5.97;3.20;;;19.40;91.00;;;;;;5033402;28;20052;-73
2022/04/24 12:29:50;;;;;;;6.55;2.85;;;19.70;90.90;;;;;;5034357;28;20128;-74
2022/04/24 12:32:17;;;;;;;8.75;3.08;;;19.80;91.00;;;;;;5033515;28;20049;-73
2022/04/24 12:34:45;;;;;;;5.43;2.92;;;20.00;91.00;;;;;;5049678;28;20041;-74
2022/04/24 12:37:26;;;;;;;5.10;3.05;;;20.30;90.90;;;;;;5033286;28;20059;-73
2022/04/24 12:39:52;;;;;;;5.25;2.83;;;20.10;90.70;;;;;;5033253;28;20050;-73
2022/04/24 12:42:19;;;;;;;7.50;2.65;;;20.50;91.00;;;;;;5033121;28;20088;-73
2022/04/24 12:44:46;;;;;;;4.70;2.95;;;20.80;90.60;;;;;;5032935;28;20049;-72
2022/04/24 12:47:13;;;;;;;5.88;2.47;;;21.00;90.70;;;;;;5032719;28;20137;-72
2022/04/24 12:49:40;;;;;;;5.05;2.75;;;21.00;90.80;;;;;;5049380;28;20056;-72
2022/04/24 12:52:07;;;;;;;4.85;2.58;;;21.20;90.40;;;;;;5034072;28;20077;-74
2022/04/24 12:54:33;;;;;;;5.70;3.08;;;20.90;90.00;;;;;;5016098;28;20049;-75